createdAt,value
2017-08-15T00:02:23.552Z,20.10
2017-08-15T00:04:51.651Z,20.00
2017-08-15T00:07:20.495Z,19.90
2017-08-15T00:09:48.598Z,20.00
2017-08-15T00:12:16.683Z,19.90
2017-08-15T00:14:44.756Z,19.80
2017-08-15T00:17:13.615Z,19.80
2017-08-15T00:19:41.700Z,19.80
2017-08-15T00:22:09.872Z,19.70
2017-08-15T00:24:37.959Z,19.80
2017-08-15T00:27:06.082Z,19.80
2017-08-15T00:29:34.164Z,19.80
2017-08-15T00:32:02.244Z,19.70
2017-08-15T00:34:30.343Z,19.70
2017-08-15T00:36:58.815Z,19.70
2017-08-15T00:39:26.941Z,19.60
2017-08-15T00:41:55.020Z,19.60
2017-08-15T00:44:23.095Z,19.60
2017-08-15T00:46:51.182Z,19.60
2017-08-15T00:49:19.285Z,19.60
2017-08-15T00:51:47.354Z,19.50
2017-08-15T00:54:15.845Z,19.60
2017-08-15T00:56:44.683Z,19.50
2017-08-15T00:59:12.795Z,19.40
2017-08-15T01:01:40.880Z,19.40
2017-08-15T01:04:09.731Z,19.40
2017-08-15T01:06:37.842Z,19.40
2017-08-15T01:09:06.689Z,19.40
2017-08-15T01:11:34.763Z,19.30
2017-08-15T01:14:02.876Z,19.30
2017-08-15T01:16:30.959Z,19.40
2017-08-15T01:18:59.804Z,19.30
2017-08-15T01:21:27.891Z,19.30
2017-08-15T01:23:55.983Z,19.30
2017-08-15T01:26:24.445Z,19.30
2017-08-15T01:28:52.541Z,19.30
2017-08-15T01:31:21.373Z,19.30
2017-08-15T01:33:49.471Z,19.20
2017-08-15T01:36:17.543Z,19.20
2017-08-15T01:38:46.645Z,19.10
2017-08-15T01:41:14.737Z,19.20
2017-08-15T01:43:44.178Z,19.10
2017-08-15T01:46:12.269Z,19.20
2017-08-15T01:48:40.342Z,19.10
2017-08-15T01:51:08.424Z,19.10
2017-08-15T01:53:37.258Z,19.10
2017-08-15T01:56:05.753Z,19.10
2017-08-15T01:58:34.218Z,19.10
2017-08-15T02:01:03.062Z,19.10
2017-08-15T02:03:31.157Z,19.00
2017-08-15T02:05:59.230Z,18.90
2017-08-15T02:08:27.301Z,18.90
2017-08-15T02:10:55.391Z,18.90
2017-08-15T02:13:23.924Z,18.90
2017-08-15T02:15:51.982Z,18.90
2017-08-15T02:18:20.814Z,18.90
2017-08-15T02:20:48.895Z,18.90
2017-08-15T02:23:18.493Z,18.90
2017-08-15T02:25:46.561Z,18.90
2017-08-15T02:28:14.629Z,18.80
2017-08-15T02:30:42.729Z,18.80
2017-08-15T02:33:11.569Z,18.80
2017-08-15T02:35:39.653Z,18.80
2017-08-15T02:38:07.762Z,18.70
2017-08-15T02:40:36.607Z,18.70
2017-08-15T02:43:04.674Z,18.60
2017-08-15T02:45:32.770Z,18.70
2017-08-15T02:48:00.840Z,18.60
2017-08-15T02:50:28.918Z,18.70
2017-08-15T02:52:57.014Z,18.70
2017-08-15T02:55:25.854Z,18.60
2017-08-15T02:57:54.337Z,18.70
2017-08-15T03:00:22.406Z,18.70
2017-08-15T03:02:50.506Z,18.70
2017-08-15T03:05:18.575Z,18.60
2017-08-15T03:07:46.676Z,18.50
2017-08-15T03:10:15.514Z,18.50
2017-08-15T03:12:44.355Z,18.50
2017-08-15T03:15:13.213Z,18.50
2017-08-15T03:17:41.305Z,18.50
2017-08-15T03:20:09.376Z,18.50
2017-08-15T03:22:37.478Z,18.50
2017-08-15T03:25:05.550Z,18.50
2017-08-15T03:27:33.622Z,18.50
2017-08-15T03:30:01.715Z,18.60
2017-08-15T03:32:29.805Z,18.40
2017-08-15T03:34:57.895Z,18.40
2017-08-15T03:37:25.961Z,18.40
2017-08-15T03:39:54.053Z,18.40
2017-08-15T03:42:22.126Z,18.40
2017-08-15T03:44:50.217Z,18.40
2017-08-15T03:47:19.096Z,18.40
2017-08-15T03:49:47.930Z,18.40
2017-08-15T03:52:16.397Z,18.40
2017-08-15T03:54:44.509Z,18.40
2017-08-15T03:57:12.582Z,18.50
2017-08-15T03:59:40.654Z,18.50
2017-08-15T04:02:09.142Z,18.40
2017-08-15T04:04:37.633Z,18.40
2017-08-15T04:07:05.705Z,18.30
2017-08-15T04:09:34.169Z,18.30
2017-08-15T04:12:02.265Z,18.30
2017-08-15T04:14:30.332Z,18.30
2017-08-15T04:16:58.802Z,18.30
2017-08-15T04:19:26.911Z,18.20
2017-08-15T04:21:55.742Z,18.10
2017-08-15T04:24:23.809Z,18.10
2017-08-15T04:26:51.991Z,18.10
2017-08-15T04:29:20.789Z,18.10
2017-08-15T04:31:48.857Z,18.10
2017-08-15T04:34:16.965Z,18.10
2017-08-15T04:36:45.034Z,18.00
2017-08-15T04:39:13.874Z,18.00
2017-08-15T04:41:42.729Z,18.00
2017-08-15T04:44:11.565Z,18.00
2017-08-15T04:46:39.664Z,18.00
2017-08-15T04:49:07.734Z,18.00
2017-08-15T04:51:35.810Z,18.00
2017-08-15T04:54:03.897Z,18.00
2017-08-15T04:56:32.758Z,18.00
2017-08-15T04:59:00.826Z,18.00
2017-08-15T05:01:28.921Z,18.00
2017-08-15T05:03:57.029Z,18.10
2017-08-15T05:06:25.493Z,18.10
2017-08-15T05:08:54.330Z,18.20
2017-08-15T05:11:22.809Z,18.30
2017-08-15T05:13:50.883Z,18.30
2017-08-15T05:16:18.985Z,18.30
2017-08-15T05:18:47.825Z,18.40
2017-08-15T05:21:15.894Z,18.40
2017-08-15T05:23:44.096Z,18.50
2017-08-15T05:26:12.141Z,18.50
2017-08-15T05:28:40.998Z,18.60
2017-08-15T05:31:09.485Z,18.60
2017-08-15T05:33:37.945Z,18.70
2017-08-15T05:36:06.043Z,18.70
2017-08-15T05:38:34.501Z,18.80
2017-08-15T05:41:02.605Z,18.90
2017-08-15T05:43:31.536Z,19.00
2017-08-15T05:46:00.327Z,19.00
2017-08-15T05:48:28.435Z,19.10
2017-08-15T05:50:56.506Z,19.20
2017-08-15T05:53:24.574Z,19.30
2017-08-15T05:55:52.661Z,19.30
2017-08-15T05:58:21.526Z,19.40
2017-08-15T06:00:49.597Z,19.50
2017-08-15T06:03:17.669Z,19.70
2017-08-15T06:05:47.261Z,19.80
2017-08-15T06:08:15.725Z,19.90
2017-08-15T06:10:43.829Z,19.90
2017-08-15T06:13:12.298Z,20.00
2017-08-15T06:15:40.365Z,20.10
2017-08-15T06:18:08.470Z,20.20
2017-08-15T06:20:36.542Z,20.20
2017-08-15T06:23:04.605Z,20.30
2017-08-15T06:25:32.699Z,20.50
2017-08-15T06:28:01.530Z,20.60
2017-08-15T06:30:29.642Z,20.60
2017-08-15T06:32:57.726Z,20.70
2017-08-15T06:35:26.562Z,20.80
2017-08-15T06:37:54.656Z,21.00
2017-08-15T06:40:22.726Z,21.10
2017-08-15T06:42:50.817Z,21.10
2017-08-15T06:45:18.917Z,21.20
2017-08-15T06:47:47.745Z,21.30
2017-08-15T06:50:15.842Z,21.40
2017-08-15T06:52:43.930Z,21.60
2017-08-15T06:55:11.997Z,21.60
2017-08-15T06:57:40.089Z,21.60
2017-08-15T07:00:08.189Z,21.70
2017-08-15T07:02:36.265Z,21.80
2017-08-15T07:05:04.358Z,21.80
2017-08-15T07:07:32.426Z,22.00
2017-08-15T07:10:00.514Z,22.10
2017-08-15T07:12:28.609Z,22.30
2017-08-15T07:14:56.702Z,22.40
2017-08-15T07:17:25.534Z,22.50
2017-08-15T07:19:53.627Z,22.60
2017-08-15T07:22:21.697Z,22.70
2017-08-15T07:24:49.809Z,23.00
2017-08-15T07:27:18.641Z,23.10
2017-08-15T07:29:46.715Z,23.10
2017-08-15T07:32:14.805Z,23.10
2017-08-15T07:34:42.877Z,23.50
2017-08-15T07:37:10.988Z,23.60
2017-08-15T07:39:39.837Z,23.80
2017-08-15T07:42:07.902Z,23.90
2017-08-15T07:44:35.994Z,23.80
2017-08-15T07:47:04.065Z,24.00
2017-08-15T07:49:32.154Z,24.10
2017-08-15T07:52:01.053Z,24.20
2017-08-15T07:54:29.891Z,24.40
2017-08-15T07:56:57.962Z,24.50
2017-08-15T07:59:26.049Z,24.60
2017-08-15T08:01:54.125Z,24.70
2017-08-15T08:04:22.213Z,24.70
2017-08-15T08:06:50.280Z,24.80
2017-08-15T08:09:18.386Z,24.90
2017-08-15T08:11:46.461Z,24.90
2017-08-15T08:14:14.925Z,25.10
2017-08-15T08:16:43.787Z,25.20
2017-08-15T08:19:12.277Z,25.00
2017-08-15T08:21:40.349Z,25.00
2017-08-15T08:24:08.429Z,25.40
2017-08-15T08:26:36.911Z,25.60
2017-08-15T08:29:04.977Z,25.60
2017-08-15T08:31:33.070Z,25.90
2017-08-15T08:34:01.909Z,26.10
2017-08-15T08:36:29.994Z,26.10
2017-08-15T08:38:58.087Z,26.20
2017-08-15T08:41:26.182Z,26.40
2017-08-15T08:43:55.038Z,26.40
2017-08-15T08:46:23.105Z,26.30
2017-08-15T08:48:51.978Z,26.40
2017-08-15T08:51:20.047Z,26.40
2017-08-15T08:53:48.122Z,26.60
2017-08-15T08:56:16.206Z,26.70
2017-08-15T08:58:44.325Z,27.00
2017-08-15T09:01:13.159Z,27.20
2017-08-15T09:03:41.231Z,27.40
2017-08-15T09:06:09.325Z,27.60
2017-08-15T09:08:37.889Z,27.50
2017-08-15T09:11:05.938Z,27.50
2017-08-15T09:13:34.429Z,27.30
2017-08-15T09:16:02.522Z,27.40
2017-08-15T09:18:30.585Z,27.40
2017-08-15T09:20:58.686Z,27.80
2017-08-15T09:23:26.766Z,28.10
2017-08-15T09:25:54.833Z,31.60
2017-08-15T09:28:22.931Z,28.40
2017-08-15T09:30:51.863Z,28.70
2017-08-15T09:33:20.678Z,28.50
2017-08-15T09:35:48.770Z,28.40
2017-08-15T09:38:17.612Z,28.50
2017-08-15T09:40:45.689Z,28.50
2017-08-15T09:43:13.757Z,28.60
2017-08-15T09:45:41.855Z,28.70
2017-08-15T09:48:09.917Z,29.00
2017-08-15T09:50:38.018Z,29.20
2017-08-15T09:53:06.896Z,29.20
2017-08-15T09:55:34.961Z,29.20
2017-08-15T09:58:08.818Z,29.30
2017-08-15T10:00:36.897Z,29.10
2017-08-15T10:03:05.006Z,29.10
2017-08-15T10:05:33.078Z,29.20
2017-08-15T10:08:01.150Z,29.40
2017-08-15T10:10:29.242Z,29.70
2017-08-15T10:12:57.318Z,29.90
2017-08-15T10:15:26.174Z,30.10
2017-08-15T10:17:54.305Z,30.10
2017-08-15T10:20:22.377Z,30.10
2017-08-15T10:22:50.489Z,30.10
2017-08-15T10:25:18.565Z,30.50
2017-08-15T10:27:46.656Z,30.60
2017-08-15T10:30:14.714Z,30.40
2017-08-15T10:32:42.809Z,31.00
2017-08-15T10:35:10.882Z,31.00
2017-08-15T10:37:38.954Z,31.00
2017-08-15T10:40:07.049Z,31.20
2017-08-15T10:42:35.113Z,31.50
2017-08-15T10:45:03.970Z,31.20
2017-08-15T10:47:32.041Z,31.20
2017-08-15T10:50:00.137Z,31.30
2017-08-15T10:52:28.210Z,31.80
2017-08-15T10:54:57.042Z,31.60
2017-08-15T10:57:25.142Z,31.60
2017-08-15T10:59:53.213Z,32.30
2017-08-15T11:02:21.302Z,32.30
2017-08-15T11:04:49.373Z,32.80
2017-08-15T11:07:17.479Z,33.00
2017-08-15T11:09:46.310Z,33.20
2017-08-15T11:12:14.586Z,32.90
2017-08-15T11:14:42.686Z,32.80
2017-08-15T11:17:10.757Z,32.80
2017-08-15T11:19:38.851Z,31.30
2017-08-15T11:22:06.923Z,31.30
2017-08-15T11:24:35.775Z,30.00
2017-08-15T11:27:03.846Z,29.80
2017-08-15T11:29:31.950Z,29.90
2017-08-15T11:32:00.789Z,30.30
2017-08-15T11:34:28.853Z,30.30
2017-08-15T11:36:56.942Z,30.90
2017-08-15T11:39:25.042Z,31.40
2017-08-15T11:41:53.114Z,30.90
2017-08-15T11:44:21.190Z,30.90
2017-08-15T11:46:49.298Z,30.90
2017-08-15T11:49:17.366Z,31.80
2017-08-15T11:51:45.434Z,31.50
2017-08-15T11:54:13.533Z,31.50
2017-08-15T11:56:41.607Z,31.60
2017-08-15T11:59:09.682Z,31.40
2017-08-15T12:01:37.802Z,30.80
2017-08-15T12:04:05.891Z,30.00
2017-08-15T12:06:34.016Z,29.60
2017-08-15T12:09:02.081Z,29.20
2017-08-15T12:11:30.170Z,28.60
2017-08-15T12:13:58.246Z,28.50
2017-08-15T12:16:26.730Z,28.20
2017-08-15T12:18:54.798Z,27.80
2017-08-15T12:21:22.914Z,27.60
2017-08-15T12:23:50.981Z,27.30
2017-08-15T12:26:19.445Z,27.00
2017-08-15T12:28:47.543Z,26.90
2017-08-15T12:31:15.649Z,26.60
2017-08-15T12:33:43.683Z,26.10
2017-08-15T12:36:11.794Z,25.60
2017-08-15T12:38:39.870Z,25.20
2017-08-15T12:41:07.925Z,24.70
2017-08-15T12:43:36.830Z,23.50
2017-08-15T12:46:05.648Z,22.30
2017-08-15T12:48:34.508Z,21.90
2017-08-15T12:51:02.578Z,21.80
2017-08-15T12:53:30.755Z,21.60
2017-08-15T12:55:59.570Z,21.50
2017-08-15T12:58:27.657Z,21.40
2017-08-15T13:00:56.523Z,21.40
2017-08-15T13:03:24.606Z,21.50
2017-08-15T13:05:52.703Z,21.50
2017-08-15T13:08:22.577Z,21.20
2017-08-15T13:10:51.456Z,21.20
2017-08-15T13:13:20.269Z,21.20
2017-08-15T13:15:48.753Z,20.90
2017-08-15T13:18:16.865Z,20.90
2017-08-15T13:20:44.934Z,21.00
2017-08-15T13:23:13.009Z,21.00
2017-08-15T13:25:41.097Z,21.10
2017-08-15T13:28:09.188Z,21.10
2017-08-15T13:30:37.286Z,21.00
2017-08-15T13:33:05.754Z,21.10
2017-08-15T13:35:33.857Z,21.10
2017-08-15T13:38:02.697Z,21.30
2017-08-15T13:40:31.162Z,21.60
2017-08-15T13:43:00.025Z,21.90
2017-08-15T13:45:28.857Z,22.20
2017-08-15T13:47:56.925Z,22.40
2017-08-15T13:50:25.019Z,22.50
2017-08-15T13:52:53.118Z,22.40
2017-08-15T13:55:21.188Z,22.20
2017-08-15T13:57:49.263Z,21.80
2017-08-15T14:00:17.361Z,21.80
2017-08-15T14:02:45.433Z,21.60
2017-08-15T14:05:13.509Z,21.40
2017-08-15T14:07:41.617Z,21.20
2017-08-15T14:10:09.689Z,21.10
2017-08-15T14:12:37.761Z,21.00
2017-08-15T14:15:05.861Z,21.00
2017-08-15T14:17:33.950Z,21.00
2017-08-15T14:20:02.809Z,20.90
2017-08-15T14:22:31.650Z,20.90
2017-08-15T14:24:59.755Z,20.80
2017-08-15T14:27:27.930Z,20.70
2017-08-15T14:29:56.718Z,20.50
2017-08-15T14:32:24.813Z,20.50
2017-08-15T14:34:52.901Z,20.40
2017-08-15T14:37:21.746Z,20.30
2017-08-15T14:39:49.830Z,20.30
2017-08-15T14:42:18.298Z,20.20
2017-08-15T14:44:46.402Z,20.20
2017-08-15T14:47:14.469Z,20.10
2017-08-15T14:49:42.546Z,20.00
2017-08-15T14:52:10.637Z,20.10
2017-08-15T14:54:38.710Z,20.00
2017-08-15T14:57:07.198Z,20.00
2017-08-15T14:59:36.034Z,20.10
2017-08-15T15:02:04.519Z,20.10
2017-08-15T15:04:32.608Z,20.20
2017-08-15T15:07:01.446Z,20.30
2017-08-15T15:09:29.542Z,20.40
2017-08-15T15:11:57.610Z,20.40
2017-08-15T15:14:25.713Z,20.40
2017-08-15T15:16:53.785Z,20.50
2017-08-15T15:19:21.850Z,20.50
2017-08-15T15:21:49.943Z,20.50
2017-08-15T15:24:18.018Z,20.60
2017-08-15T15:26:46.109Z,20.60
2017-08-15T15:29:14.946Z,20.60
2017-08-15T15:31:43.050Z,20.60
2017-08-15T15:34:11.122Z,20.60
2017-08-15T15:36:39.189Z,20.50
2017-08-15T15:39:07.278Z,20.50
2017-08-15T15:41:36.122Z,20.40
2017-08-15T15:44:04.630Z,20.40
2017-08-15T15:46:33.461Z,20.40
2017-08-15T15:49:01.534Z,20.30
2017-08-15T15:51:29.625Z,20.40
2017-08-15T15:53:58.461Z,20.30
2017-08-15T15:56:26.566Z,20.30
2017-08-15T15:58:54.637Z,20.30
2017-08-15T16:01:22.705Z,20.30
2017-08-15T16:03:51.561Z,20.30
2017-08-15T16:06:19.654Z,20.30
2017-08-15T16:08:48.514Z,20.30
2017-08-15T16:11:16.587Z,20.40
2017-08-15T16:13:45.465Z,20.40
2017-08-15T16:16:13.538Z,20.50
2017-08-15T16:18:41.606Z,20.60
2017-08-15T16:21:09.694Z,20.60
2017-08-15T16:23:39.306Z,20.70
2017-08-15T16:26:07.464Z,20.70
2017-08-15T16:28:35.944Z,20.80
2017-08-15T16:31:04.834Z,20.90
2017-08-15T16:33:33.727Z,20.90
2017-08-15T16:36:01.758Z,21.00
2017-08-15T16:38:29.829Z,21.10
2017-08-15T16:40:57.922Z,21.10
2017-08-15T16:43:25.998Z,20.90
2017-08-15T16:45:54.087Z,20.90
2017-08-15T16:48:22.158Z,20.70
2017-08-15T16:50:51.018Z,20.70
2017-08-15T16:53:19.091Z,20.70
2017-08-15T16:55:47.196Z,20.70
2017-08-15T16:58:15.662Z,20.70
2017-08-15T17:00:43.726Z,20.70
2017-08-15T17:03:11.830Z,20.70
2017-08-15T17:05:39.908Z,20.70
2017-08-15T17:08:07.973Z,20.60
2017-08-15T17:10:36.061Z,20.60
2017-08-15T17:13:04.140Z,20.60
2017-08-15T17:15:32.229Z,20.60
2017-08-15T17:18:01.253Z,20.50
2017-08-15T17:20:29.386Z,20.50
2017-08-15T17:22:57.510Z,20.50
2017-08-15T17:25:25.590Z,20.60
2017-08-15T17:27:53.658Z,20.60
2017-08-15T17:30:21.754Z,20.60
2017-08-15T17:32:49.873Z,20.60
2017-08-15T17:35:18.373Z,20.60
2017-08-15T17:37:46.458Z,20.60
2017-08-15T17:40:14.541Z,20.60
2017-08-15T17:42:42.653Z,20.70
2017-08-15T17:45:11.130Z,20.60
2017-08-15T17:47:39.970Z,20.60
2017-08-15T17:50:08.074Z,20.50
2017-08-15T17:52:36.168Z,20.50
2017-08-15T17:55:05.002Z,20.50
2017-08-15T17:57:33.114Z,20.50
2017-08-15T18:00:01.186Z,20.50
2017-08-15T18:02:29.655Z,20.40
2017-08-15T18:04:57.758Z,20.30
2017-08-15T18:07:26.602Z,20.20
2017-08-15T18:09:54.713Z,20.20
2017-08-15T18:12:23.550Z,20.20
2017-08-15T18:14:52.385Z,20.10
2017-08-15T18:17:20.877Z,20.10
2017-08-15T18:19:49.718Z,20.20
2017-08-15T18:22:17.813Z,20.20
2017-08-15T18:24:45.882Z,20.10
2017-08-15T18:27:13.958Z,20.20
2017-08-15T18:29:42.118Z,20.20
2017-08-15T18:32:10.622Z,20.10
2017-08-15T18:34:38.697Z,20.00
2017-08-15T18:37:06.771Z,20.00
2017-08-15T18:39:35.632Z,20.00
2017-08-15T18:42:03.703Z,20.00
2017-08-15T18:44:31.798Z,20.00
2017-08-15T18:46:59.865Z,20.10
2017-08-15T18:49:27.957Z,20.00
2017-08-15T18:51:56.810Z,20.10
2017-08-15T18:54:24.881Z,20.10
2017-08-15T18:56:52.981Z,20.10
2017-08-15T18:59:21.068Z,20.00
2017-08-15T19:01:49.133Z,19.90
2017-08-15T19:04:17.994Z,19.90
2017-08-15T19:06:46.099Z,19.90
2017-08-15T19:09:14.562Z,20.00
2017-08-15T19:11:43.398Z,19.90
2017-08-15T19:14:11.886Z,19.90
2017-08-15T19:16:39.959Z,19.90
2017-08-15T19:19:08.045Z,19.80
2017-08-15T19:21:36.125Z,19.80
2017-08-15T19:24:04.610Z,19.80
2017-08-15T19:26:32.683Z,19.80
2017-08-15T19:29:00.813Z,19.80
2017-08-15T19:31:29.650Z,19.70
2017-08-15T19:33:58.494Z,19.60
2017-08-15T19:36:26.590Z,19.60
2017-08-15T19:38:54.663Z,19.60
2017-08-15T19:41:22.733Z,19.60
2017-08-15T19:43:50.826Z,19.60
2017-08-15T19:46:19.294Z,19.50
2017-08-15T19:48:47.386Z,19.50
2017-08-15T19:51:15.855Z,19.50
2017-08-15T19:53:43.947Z,19.50
2017-08-15T19:56:12.014Z,19.50
2017-08-15T19:58:40.162Z,19.40
2017-08-15T20:01:08.238Z,19.40
2017-08-15T20:03:36.322Z,19.40
2017-08-15T20:06:04.406Z,19.30
2017-08-15T20:08:32.569Z,19.30
2017-08-15T20:11:01.366Z,19.30
2017-08-15T20:13:29.463Z,19.30
2017-08-15T20:15:57.535Z,19.30
2017-08-15T20:18:25.605Z,19.30
2017-08-15T20:20:53.707Z,19.30
2017-08-15T20:23:21.770Z,19.20
2017-08-15T20:25:50.629Z,19.20
2017-08-15T20:28:18.698Z,19.10
2017-08-15T20:30:46.794Z,19.20
2017-08-15T20:33:14.871Z,19.10
2017-08-15T20:35:43.721Z,19.10
2017-08-15T20:38:11.828Z,19.10
2017-08-15T20:40:39.903Z,19.10
2017-08-15T20:43:07.979Z,19.10
2017-08-15T20:45:36.829Z,19.00
2017-08-15T20:48:04.906Z,19.00
2017-08-15T20:50:32.993Z,19.00
2017-08-15T20:53:01.086Z,19.00
2017-08-15T20:55:29.945Z,19.00
2017-08-15T20:57:58.013Z,19.00
2017-08-15T21:00:26.102Z,19.00
2017-08-15T21:02:54.194Z,19.00
2017-08-15T21:05:23.029Z,19.00
2017-08-15T21:07:51.907Z,19.00
2017-08-15T21:10:20.757Z,19.00
2017-08-15T21:12:49.596Z,19.00
2017-08-15T21:15:17.690Z,19.00
2017-08-15T21:17:45.798Z,19.00
2017-08-15T21:20:14.639Z,19.10
2017-08-15T21:22:42.714Z,19.10
2017-08-15T21:25:10.822Z,19.20
2017-08-15T21:27:38.902Z,19.20
2017-08-15T21:30:07.366Z,19.30
2017-08-15T21:32:35.481Z,19.20
2017-08-15T21:35:03.566Z,19.20
2017-08-15T21:37:31.641Z,19.30
2017-08-15T21:39:59.742Z,19.30
2017-08-15T21:42:27.853Z,19.30
2017-08-15T21:44:56.713Z,19.30
2017-08-15T21:47:24.794Z,19.30
2017-08-15T21:49:52.909Z,19.30
2017-08-15T21:52:20.989Z,19.30
2017-08-15T21:54:49.093Z,19.40
2017-08-15T21:57:17.194Z,19.40
2017-08-15T21:59:46.042Z,19.40
2017-08-15T22:02:19.963Z,19.40
2017-08-15T22:04:48.042Z,19.40
2017-08-15T22:07:16.149Z,19.30
2017-08-15T22:09:44.234Z,19.40
2017-08-15T22:12:12.317Z,19.40
2017-08-15T22:14:40.574Z,19.40
2017-08-15T22:17:08.625Z,19.40
2017-08-15T22:19:37.477Z,19.40
2017-08-15T22:22:05.970Z,19.40
2017-08-15T22:24:34.049Z,19.40
2017-08-15T22:27:02.162Z,19.40
2017-08-15T22:29:30.638Z,19.40
2017-08-15T22:31:59.168Z,19.40
2017-08-15T22:34:27.233Z,19.40
2017-08-15T22:36:55.314Z,19.40
2017-08-15T22:39:23.794Z,19.50
2017-08-15T22:41:52.183Z,19.50
2017-08-15T22:44:20.673Z,19.50
2017-08-15T22:46:48.746Z,19.50
2017-08-15T22:49:16.855Z,19.50
2017-08-15T22:51:45.726Z,19.50
2017-08-15T22:54:14.683Z,19.60
2017-08-15T22:56:42.779Z,19.50
2017-08-15T22:59:11.398Z,19.50
2017-08-15T23:01:39.491Z,19.50
2017-08-15T23:04:07.600Z,19.50
2017-08-15T23:06:35.674Z,19.50
2017-08-15T23:09:03.786Z,19.50
2017-08-15T23:11:32.264Z,19.50
2017-08-15T23:14:01.204Z,19.50
2017-08-15T23:16:29.642Z,19.50
2017-08-15T23:18:57.746Z,19.40
2017-08-15T23:21:25.902Z,19.40
2017-08-15T23:23:54.750Z,19.40
2017-08-15T23:26:22.844Z,19.40
2017-08-15T23:28:51.715Z,19.40
2017-08-15T23:31:19.798Z,19.50
2017-08-15T23:33:48.337Z,19.50
2017-08-15T23:36:16.807Z,19.50
2017-08-15T23:38:44.959Z,19.50
2017-08-15T23:41:13.038Z,19.50
2017-08-15T23:43:41.137Z,19.50
2017-08-15T23:46:09.274Z,19.60
2017-08-15T23:48:37.792Z,19.60
2017-08-15T23:51:05.844Z,19.50
2017-08-15T23:53:34.040Z,19.40
2017-08-15T23:56:02.479Z,19.40
2017-08-15T23:58:30.582Z,19.30
